createdAt,value
2022-08-26T00:01:55.112Z,96059.31
2022-08-26T00:04:25.457Z,96061.41
2022-08-26T00:06:56.850Z,96058.81
2022-08-26T00:09:25.744Z,96063.72
2022-08-26T00:11:54.761Z,96068.53
2022-08-26T00:14:28.307Z,96065.91
2022-08-26T00:16:58.865Z,96064.66
2022-08-26T00:19:26.526Z,96059.19
2022-08-26T00:21:54.210Z,96058.50
2022-08-26T00:24:23.726Z,96057.25
2022-08-26T00:26:51.826Z,96054.75
2022-08-26T00:29:19.725Z,96052.91
2022-08-26T00:31:49.371Z,96051.41
2022-08-26T00:34:19.426Z,96051.16
2022-08-26T00:36:49.371Z,96052.50
2022-08-26T00:39:20.397Z,96053.97
2022-08-26T00:41:48.251Z,96049.75
2022-08-26T00:44:15.787Z,96047.66
2022-08-26T00:46:48.894Z,96051.41
2022-08-26T00:49:36.422Z,96050.09
2022-08-26T00:52:09.819Z,96049.22
2022-08-26T00:54:52.665Z,96049.63
2022-08-26T00:57:22.344Z,96046.06
2022-08-26T00:59:55.223Z,96047.03
2022-08-26T01:02:23.611Z,96045.56
2022-08-26T01:04:57.253Z,96038.66
2022-08-26T01:07:31.380Z,96034.84
2022-08-26T01:10:05.560Z,96040.66
2022-08-26T01:12:40.329Z,96042.94
2022-08-26T01:15:10.464Z,96044.09
2022-08-26T01:17:41.364Z,96039.06
2022-08-26T01:20:25.206Z,96045.88
2022-08-26T01:23:03.245Z,96043.09
2022-08-26T01:25:33.933Z,96038.31
2022-08-26T01:28:06.705Z,96044.50
2022-08-26T01:30:35.907Z,96053.03
2022-08-26T01:33:09.367Z,96049.00
2022-08-26T01:35:40.311Z,96048.72
2022-08-26T01:38:07.555Z,96042.31
2022-08-26T01:40:38.285Z,96042.28
2022-08-26T01:43:08.691Z,96043.53
2022-08-26T01:45:37.602Z,96044.50
2022-08-26T01:48:11.893Z,96043.84
2022-08-26T01:50:39.895Z,96052.66
2022-08-26T01:53:12.392Z,96045.16
2022-08-26T01:55:43.805Z,96046.13
2022-08-26T01:58:18.653Z,96048.81
2022-08-26T02:00:46.480Z,96060.69
2022-08-26T02:03:17.378Z,96055.56
2022-08-26T02:06:09.385Z,96057.50
2022-08-26T02:08:42.730Z,96054.34
2022-08-26T02:11:11.366Z,96058.91
2022-08-26T02:13:41.944Z,96058.56
2022-08-26T02:16:11.355Z,96059.75
2022-08-26T02:18:41.728Z,96046.00
2022-08-26T02:21:12.106Z,96051.72
2022-08-26T02:23:40.849Z,96052.72
2022-08-26T02:26:11.664Z,96055.22
2022-08-26T02:28:51.034Z,96057.66
2022-08-26T02:31:18.763Z,96060.13
2022-08-26T02:33:47.227Z,96063.53
2022-08-26T02:36:23.713Z,96060.66
2022-08-26T02:38:55.787Z,96051.72
2022-08-26T02:41:23.134Z,96060.34
2022-08-26T02:43:50.517Z,96064.47
2022-08-26T02:46:28.030Z,96063.41
2022-08-26T02:48:58.587Z,96062.06
2022-08-26T02:51:25.724Z,96059.88
2022-08-26T02:53:53.057Z,96060.50
2022-08-26T02:56:20.115Z,96057.78
2022-08-26T02:58:50.233Z,96064.06
2022-08-26T03:01:31.148Z,96055.75
2022-08-26T03:04:00.285Z,96056.28
2022-08-26T03:06:27.760Z,96051.72
2022-08-26T03:08:56.217Z,96053.63
2022-08-26T03:11:24.815Z,96052.38
2022-08-26T03:13:52.946Z,96048.53
2022-08-26T03:16:21.062Z,96046.50
2022-08-26T03:18:52.301Z,96045.94
2022-08-26T03:21:21.246Z,96049.59
2022-08-26T03:23:48.402Z,96050.53
2022-08-26T03:26:17.253Z,96044.91
2022-08-26T03:29:03.122Z,96044.19
2022-08-26T03:31:30.581Z,96049.00
2022-08-26T03:33:59.687Z,96048.78
2022-08-26T03:36:27.895Z,96050.22
2022-08-26T03:38:56.755Z,96037.78
2022-08-26T03:41:24.162Z,96043.16
2022-08-26T03:43:51.267Z,96039.50
2022-08-26T03:46:20.601Z,96026.31
2022-08-26T03:48:48.104Z,96032.59
2022-08-26T03:51:19.113Z,96027.81
2022-08-26T03:53:48.394Z,96037.84
2022-08-26T03:56:15.777Z,96037.88
2022-08-26T03:58:44.783Z,96033.47
2022-08-26T04:01:15.676Z,96034.59
2022-08-26T04:04:00.317Z,96034.78
2022-08-26T04:06:35.746Z,96039.72
2022-08-26T04:09:15.087Z,96036.72
2022-08-26T04:11:44.953Z,96040.44
2022-08-26T04:14:20.075Z,96043.22
2022-08-26T04:16:49.120Z,96040.09
2022-08-26T04:19:17.162Z,96033.13
2022-08-26T04:21:46.268Z,96036.97
2022-08-26T04:24:15.815Z,96032.97
2022-08-26T04:26:45.160Z,96031.25
2022-08-26T04:29:24.194Z,96031.09
2022-08-26T04:31:55.442Z,96021.53
2022-08-26T04:34:24.825Z,96031.81
2022-08-26T04:36:58.194Z,96030.34
2022-08-26T04:39:25.773Z,96031.09
2022-08-26T04:41:55.409Z,96035.34
2022-08-26T04:44:25.232Z,96040.34
2022-08-26T04:46:53.283Z,96043.75
2022-08-26T04:49:20.767Z,96039.56
2022-08-26T04:51:49.036Z,96032.38
2022-08-26T04:54:16.762Z,96037.16
2022-08-26T04:56:47.595Z,96043.22
2022-08-26T04:59:18.109Z,96044.22
2022-08-26T05:01:51.548Z,96049.41
2022-08-26T05:04:20.732Z,96041.91
2022-08-26T05:06:49.152Z,96050.38
2022-08-26T05:09:16.537Z,96054.56
2022-08-26T05:11:43.608Z,96054.22
2022-08-26T05:14:10.857Z,96058.09
2022-08-26T05:16:38.955Z,96058.47
2022-08-26T05:19:08.432Z,96054.22
2022-08-26T05:21:37.874Z,96064.34
2022-08-26T05:24:09.639Z,96059.19
2022-08-26T05:26:38.163Z,96065.44
2022-08-26T05:29:06.826Z,96059.03
2022-08-26T05:31:35.715Z,96063.19
2022-08-26T05:34:04.867Z,96066.75
2022-08-26T05:36:34.968Z,96066.66
2022-08-26T05:39:04.532Z,96061.16
2022-08-26T05:41:36.412Z,96065.78
2022-08-26T05:44:08.027Z,96065.22
2022-08-26T05:46:37.162Z,96062.09
2022-08-26T05:49:05.965Z,96076.03
2022-08-26T05:51:40.710Z,96076.50
2022-08-26T05:54:07.818Z,96077.34
2022-08-26T05:56:39.050Z,96080.13
2022-08-26T05:59:14.089Z,96078.81
2022-08-26T06:01:43.816Z,96084.13
2022-08-26T06:04:12.362Z,96086.97
2022-08-26T06:06:42.837Z,96085.63
2022-08-26T06:09:12.319Z,96092.22
2022-08-26T06:11:40.458Z,96080.38
2022-08-26T06:14:08.669Z,96090.41
2022-08-26T06:16:40.962Z,96091.31
2022-08-26T06:19:11.445Z,96090.75
2022-08-26T06:21:41.341Z,96096.91
2022-08-26T06:24:31.564Z,96095.91
2022-08-26T06:27:02.106Z,96089.06
2022-08-26T06:29:32.596Z,96097.72
2022-08-26T06:32:00.665Z,96094.72
2022-08-26T06:34:31.020Z,96096.19
2022-08-26T06:37:06.369Z,96098.53
2022-08-26T06:39:34.639Z,96101.56
2022-08-26T06:42:03.390Z,96105.28
2022-08-26T06:44:34.432Z,96109.38
2022-08-26T06:47:03.070Z,96108.84
2022-08-26T06:49:31.655Z,96105.44
2022-08-26T06:51:59.107Z,96104.81
2022-08-26T06:54:28.645Z,96098.94
2022-08-26T06:56:57.420Z,96101.00
2022-08-26T06:59:25.668Z,96101.25
2022-08-26T07:01:53.659Z,96102.50
2022-08-26T07:04:23.229Z,96101.22
2022-08-26T07:06:52.358Z,96102.47
2022-08-26T07:09:23.252Z,96104.38
2022-08-26T07:11:51.660Z,96108.97
2022-08-26T07:14:21.630Z,96101.91
2022-08-26T07:16:50.706Z,96109.41
2022-08-26T07:19:28.517Z,96103.59
2022-08-26T07:22:03.474Z,96110.91
2022-08-26T07:24:32.442Z,96108.50
2022-08-26T07:27:08.780Z,96112.09
2022-08-26T07:29:37.852Z,96115.50
2022-08-26T07:32:06.632Z,96110.84
2022-08-26T07:34:34.145Z,96117.34
2022-08-26T07:37:01.943Z,96115.13
2022-08-26T07:39:31.651Z,96128.97
2022-08-26T07:42:07.887Z,96119.56
2022-08-26T07:44:37.705Z,96122.38
2022-08-26T07:47:10.568Z,96128.47
2022-08-26T07:49:57.730Z,96127.78
2022-08-26T07:52:27.636Z,96127.66
2022-08-26T07:55:02.086Z,96134.16
2022-08-26T07:57:30.594Z,96130.03
2022-08-26T07:59:58.992Z,96131.28
2022-08-26T08:02:28.946Z,96137.34
2022-08-26T08:04:58.106Z,96132.41
2022-08-26T08:07:38.494Z,96139.44
2022-08-26T08:10:20.868Z,96135.25
2022-08-26T08:12:49.708Z,96128.44
2022-08-26T08:15:20.384Z,96133.13
2022-08-26T08:17:48.034Z,96131.81
2022-08-26T08:20:21.218Z,96134.44
2022-08-26T08:22:50.745Z,96134.91
2022-08-26T08:25:19.949Z,96138.66
2022-08-26T08:27:48.918Z,96139.44
2022-08-26T08:30:23.104Z,96138.25
2022-08-26T08:32:52.170Z,96139.50
2022-08-26T08:35:24.192Z,96137.16
2022-08-26T08:37:54.586Z,96138.75
2022-08-26T08:40:27.168Z,96141.03
2022-08-26T08:43:25.516Z,96136.25
2022-08-26T08:46:01.259Z,96125.97
2022-08-26T08:48:35.906Z,96126.25
2022-08-26T08:51:39.928Z,96126.78
2022-08-26T08:54:08.840Z,96125.47
2022-08-26T08:57:05.695Z,96124.66
2022-08-26T08:59:35.672Z,96124.63
2022-08-26T09:02:17.880Z,96126.63
2022-08-26T09:04:53.921Z,96122.63
2022-08-26T09:07:26.439Z,96126.75
2022-08-26T09:09:59.415Z,96131.78
2022-08-26T09:12:31.584Z,96131.97
2022-08-26T09:15:25.457Z,96126.63
2022-08-26T09:18:04.556Z,96124.41
2022-08-26T09:20:42.198Z,96133.25
2022-08-26T09:23:13.286Z,96125.03
2022-08-26T09:28:27.487Z,96128.38
2022-08-26T09:31:03.514Z,96128.75
2022-08-26T09:33:33.400Z,96128.53
2022-08-26T09:36:17.534Z,96122.00
2022-08-26T09:38:45.380Z,96128.25
2022-08-26T09:41:33.564Z,96121.25
2022-08-26T09:44:14.555Z,96125.44
2022-08-26T09:47:05.623Z,96123.91
2022-08-26T09:49:38.706Z,96126.00
2022-08-26T09:52:11.647Z,96120.34
2022-08-26T09:54:39.989Z,96115.06
2022-08-26T09:57:28.976Z,96109.75
2022-08-26T09:59:56.483Z,96111.47
2022-08-26T10:02:33.263Z,96107.44
2022-08-26T10:05:09.337Z,96099.50
2022-08-26T10:07:51.118Z,96098.38
2022-08-26T10:10:26.497Z,96090.28
2022-08-26T10:13:06.678Z,96088.84
2022-08-26T10:15:50.008Z,96087.22
2022-08-26T10:18:33.686Z,96089.09
2022-08-26T10:21:14.342Z,96083.34
2022-08-26T10:23:51.896Z,96086.53
2022-08-26T10:27:01.201Z,96079.25
2022-08-26T10:29:50.950Z,96073.03
2022-08-26T10:32:41.445Z,96075.34
2022-08-26T10:35:14.341Z,96069.63
2022-08-26T10:38:14.605Z,96077.19
2022-08-26T10:40:49.136Z,96059.09
2022-08-26T10:43:25.636Z,96063.44
2022-08-26T10:46:00.836Z,96056.28
2022-08-26T10:48:47.993Z,96057.81
2022-08-26T10:51:27.741Z,96048.13
2022-08-26T10:54:05.179Z,96057.97
2022-08-26T10:56:41.506Z,96060.09
2022-08-26T10:59:29.453Z,96060.03
2022-08-26T11:02:12.092Z,96051.72
2022-08-26T11:04:56.192Z,96052.16
2022-08-26T11:07:57.549Z,96045.53
2022-08-26T11:10:24.732Z,96044.22
2022-08-26T11:13:01.683Z,96038.91
2022-08-26T11:15:29.697Z,96041.06
2022-08-26T11:18:24.263Z,96044.41
2022-08-26T11:20:52.301Z,96033.34
2022-08-26T11:23:21.224Z,96035.16
2022-08-26T11:26:09.593Z,96033.84
2022-08-26T11:28:46.069Z,96037.69
2022-08-26T11:31:26.784Z,96048.50
2022-08-26T11:34:00.016Z,96045.16
2022-08-26T11:36:45.835Z,96030.41
2022-08-26T11:39:29.638Z,96025.94
2022-08-26T11:42:01.993Z,96020.69
2022-08-26T11:44:49.691Z,96021.25
2022-08-26T11:47:27.259Z,96020.78
2022-08-26T11:50:17.478Z,96022.84
2022-08-26T11:53:02.033Z,96020.03
2022-08-26T11:55:31.754Z,96016.13
2022-08-26T11:58:02.262Z,96010.97
2022-08-26T12:00:37.949Z,96010.13
2022-08-26T12:03:20.254Z,96012.63
2022-08-26T12:05:53.418Z,96017.50
2022-08-26T12:08:28.637Z,96008.41
2022-08-26T12:11:04.223Z,96002.75
2022-08-26T12:13:31.558Z,96003.19
2022-08-26T12:16:00.535Z,96000.66
2022-08-26T12:18:32.318Z,95993.13
2022-08-26T12:21:10.412Z,95989.81
2022-08-26T12:23:47.618Z,95991.22
2022-08-26T12:26:33.157Z,95997.38
2022-08-26T12:29:20.017Z,96000.69
2022-08-26T12:31:48.325Z,96006.34
2022-08-26T12:34:17.889Z,96008.97
2022-08-26T12:39:38.474Z,96007.34
2022-08-26T12:42:17.268Z,96006.78
2022-08-26T12:45:07.627Z,95998.81
2022-08-26T12:47:44.205Z,95994.88
2022-08-26T12:50:24.204Z,95982.50
2022-08-26T12:53:05.189Z,95986.41
2022-08-26T12:55:32.633Z,95986.00
2022-08-26T12:58:13.870Z,95984.94
2022-08-26T13:00:45.809Z,95991.25
2022-08-26T13:03:37.428Z,95975.97
2022-08-26T13:06:15.709Z,95977.91
2022-08-26T13:08:53.387Z,95976.03
2022-08-26T13:11:32.724Z,95972.13
2022-08-26T13:14:06.911Z,95970.59
2022-08-26T13:16:37.153Z,95958.78
2022-08-26T13:19:14.823Z,95966.88
2022-08-26T13:21:48.747Z,95959.19
2022-08-26T13:24:20.065Z,95947.56
2022-08-26T13:26:49.816Z,95940.38
2022-08-26T13:29:18.908Z,95937.09
2022-08-26T13:31:47.273Z,95950.53
2022-08-26T13:34:20.995Z,95959.06
2022-08-26T13:36:50.367Z,95972.94
2022-08-26T13:39:18.413Z,95972.78
2022-08-26T13:41:46.535Z,95980.84
2022-08-26T13:44:14.301Z,95995.28
2022-08-26T13:46:42.151Z,95988.13
2022-08-26T13:49:10.070Z,95980.31
2022-08-26T13:51:37.999Z,95980.44
2022-08-26T13:54:06.175Z,95989.88
2022-08-26T13:56:34.732Z,95983.19
2022-08-26T13:59:02.289Z,95980.06
2022-08-26T14:01:31.817Z,95973.38
2022-08-26T14:03:59.352Z,95978.25
2022-08-26T14:06:27.031Z,95974.03
2022-08-26T14:08:54.335Z,95979.03
2022-08-26T14:11:21.685Z,95987.31
2022-08-26T14:13:48.919Z,95987.06
2022-08-26T14:16:27.348Z,95984.78
2022-08-26T14:18:55.191Z,95973.84
2022-08-26T14:21:25.593Z,95961.41
2022-08-26T14:23:53.110Z,95959.81
2022-08-26T14:26:28.699Z,95964.84
2022-08-26T14:28:59.185Z,95978.91
2022-08-26T14:31:29.538Z,95970.75
2022-08-26T14:34:04.375Z,95974.66
2022-08-26T14:36:32.695Z,95977.50
2022-08-26T14:39:07.552Z,95971.38
2022-08-26T14:41:38.991Z,95982.63
2022-08-26T14:44:11.517Z,95993.94
2022-08-26T14:46:49.019Z,96007.41
2022-08-26T14:49:17.892Z,96013.63
2022-08-26T14:51:45.897Z,96019.56
2022-08-26T14:54:14.494Z,96025.34
2022-08-26T14:57:04.013Z,96028.78
2022-08-26T14:59:39.953Z,96023.44
2022-08-26T15:02:11.565Z,96016.91
2022-08-26T15:04:41.980Z,96030.13
2022-08-26T15:07:09.779Z,96025.13
2022-08-26T15:09:41.418Z,96032.56
2022-08-26T15:12:09.013Z,96036.84
2022-08-26T15:14:36.683Z,96029.78
2022-08-26T15:17:04.981Z,96029.47
2022-08-26T15:19:34.808Z,96030.88
2022-08-26T15:22:02.212Z,96033.69
2022-08-26T15:24:29.759Z,96033.44
2022-08-26T15:26:57.481Z,96039.91
2022-08-26T15:29:24.785Z,96041.91
2022-08-26T15:31:55.185Z,96041.81
2022-08-26T15:34:25.134Z,96041.72
2022-08-26T15:36:52.593Z,96039.84
2022-08-26T15:39:20.539Z,96044.09
2022-08-26T15:41:47.935Z,96043.19
2022-08-26T15:44:17.498Z,96037.50
2022-08-26T15:46:45.832Z,96036.63
2022-08-26T15:49:17.589Z,96037.56
2022-08-26T15:51:48.223Z,96043.63
2022-08-26T15:54:19.751Z,96050.66
2022-08-26T15:56:52.461Z,96043.97
2022-08-26T15:59:21.885Z,96043.25
2022-08-26T16:01:50.391Z,96045.22
2022-08-26T16:04:18.829Z,96036.63
2022-08-26T16:06:50.487Z,96042.84
2022-08-26T16:09:21.030Z,96036.78
2022-08-26T16:11:48.442Z,96040.56
2022-08-26T16:14:15.824Z,96045.09
2022-08-26T16:16:43.505Z,96052.47
2022-08-26T16:19:11.894Z,96051.16
2022-08-26T16:21:40.692Z,96044.66
2022-08-26T16:24:08.883Z,96049.91
2022-08-26T16:26:38.665Z,96047.38
2022-08-26T16:29:10.430Z,96046.28
2022-08-26T16:31:38.870Z,96043.56
2022-08-26T16:34:07.429Z,96042.31
2022-08-26T16:36:38.733Z,96057.66
2022-08-26T16:39:08.162Z,96051.44
2022-08-26T16:41:35.970Z,96058.47
2022-08-26T16:44:04.691Z,96061.31
2022-08-26T16:46:32.464Z,96060.38
2022-08-26T16:49:01.765Z,96072.75
2022-08-26T16:51:29.718Z,96075.75
2022-08-26T16:53:59.072Z,96081.47
2022-08-26T16:56:33.925Z,96073.94
2022-08-26T16:59:05.278Z,96072.66
2022-08-26T17:01:32.865Z,96063.72
2022-08-26T17:04:00.155Z,96074.69
2022-08-26T17:06:27.406Z,96070.84
2022-08-26T17:08:54.729Z,96065.94
2022-08-26T17:11:21.920Z,96078.75
2022-08-26T17:13:49.011Z,96074.56
2022-08-26T17:16:16.593Z,96070.31
2022-08-26T17:18:43.879Z,96069.97
2022-08-26T17:21:13.400Z,96078.81
2022-08-26T17:23:42.688Z,96081.75
2022-08-26T17:26:12.234Z,96072.72
2022-08-26T17:28:42.269Z,96074.47
2022-08-26T17:31:11.588Z,96056.38
2022-08-26T17:33:39.637Z,96070.38
2022-08-26T17:36:08.893Z,96065.44
2022-08-26T17:38:37.907Z,96065.03
2022-08-26T17:41:09.745Z,96066.13
2022-08-26T17:43:39.347Z,96060.81
2022-08-26T17:46:09.120Z,96061.56
2022-08-26T17:48:37.707Z,96077.19
2022-08-26T17:51:14.267Z,96081.41
2022-08-26T17:53:42.639Z,96079.41
2022-08-26T17:56:11.737Z,96075.91
2022-08-26T17:58:47.908Z,96069.47
2022-08-26T18:01:20.651Z,96070.22
2022-08-26T18:03:48.689Z,96081.44
2022-08-26T18:06:16.287Z,96075.19
2022-08-26T18:08:44.277Z,96072.59
2022-08-26T18:11:21.077Z,96074.78
2022-08-26T18:13:48.274Z,96082.69
2022-08-26T18:16:17.906Z,96081.06
2022-08-26T18:18:46.765Z,96085.06
2022-08-26T18:21:23.806Z,96095.16
2022-08-26T18:23:52.433Z,96104.13
2022-08-26T18:26:29.534Z,96115.84
2022-08-26T18:28:57.171Z,96119.72
2022-08-26T18:31:25.133Z,96126.34
2022-08-26T18:33:53.188Z,96121.00
2022-08-26T18:36:26.928Z,96113.63
2022-08-26T18:38:55.398Z,96115.06
2022-08-26T18:41:26.383Z,96111.41
2022-08-26T18:43:54.416Z,96105.31
2022-08-26T18:46:25.599Z,96105.25
2022-08-26T18:48:54.853Z,96121.00
2022-08-26T18:51:28.280Z,96120.59
2022-08-26T18:53:58.503Z,96129.53
2022-08-26T18:56:26.035Z,96136.66
2022-08-26T18:58:55.547Z,96134.25
2022-08-26T19:01:27.250Z,96136.63
2022-08-26T19:03:56.301Z,96147.63
2022-08-26T19:06:26.822Z,96143.19
2022-08-26T19:08:54.387Z,96139.81
2022-08-26T19:11:31.203Z,96150.41
2022-08-26T19:14:01.803Z,96156.06
2022-08-26T19:16:31.229Z,96154.41
2022-08-26T19:19:00.897Z,96141.00
2022-08-26T19:21:29.869Z,96147.41
2022-08-26T19:24:02.778Z,96154.06
2022-08-26T19:26:31.977Z,96154.56
2022-08-26T19:29:02.793Z,96162.50
2022-08-26T19:31:30.335Z,96154.22
2022-08-26T19:33:58.240Z,96160.63
2022-08-26T19:36:26.981Z,96154.75
2022-08-26T19:38:54.843Z,96152.88
2022-08-26T19:41:37.287Z,96155.44
2022-08-26T19:44:13.373Z,96153.56
2022-08-26T19:46:44.925Z,96143.13
2022-08-26T19:49:12.463Z,96131.34
2022-08-26T19:51:40.050Z,96127.59
2022-08-26T19:54:08.143Z,96128.47
2022-08-26T19:56:35.406Z,96127.91
2022-08-26T19:59:03.437Z,96127.00
2022-08-26T20:01:31.175Z,96131.38
2022-08-26T20:03:58.687Z,96139.94
2022-08-26T20:06:25.934Z,96145.09
2022-08-26T20:08:56.147Z,96145.56
2022-08-26T20:11:24.096Z,96149.72
2022-08-26T20:13:51.552Z,96146.38
2022-08-26T20:16:19.143Z,96150.75
2022-08-26T20:19:05.271Z,96157.31
2022-08-26T20:21:36.234Z,96163.38
2022-08-26T20:24:13.450Z,96168.66
2022-08-26T20:26:42.813Z,96167.59
2022-08-26T20:29:13.374Z,96166.72
2022-08-26T20:31:42.617Z,96175.66
2022-08-26T20:34:10.895Z,96173.28
2022-08-26T20:36:39.814Z,96179.84
2022-08-26T20:39:07.339Z,96186.63
2022-08-26T20:41:35.805Z,96197.06
2022-08-26T20:44:06.609Z,96205.75
2022-08-26T20:46:38.309Z,96198.22
2022-08-26T20:49:07.395Z,96199.91
2022-08-26T20:51:37.596Z,96204.63
2022-08-26T20:54:06.752Z,96203.50
2022-08-26T20:56:34.681Z,96201.84
2022-08-26T20:59:03.331Z,96194.66
2022-08-26T21:01:34.772Z,96198.88
2022-08-26T21:04:05.252Z,96186.03
2022-08-26T21:06:34.132Z,96178.38
2022-08-26T21:09:04.530Z,96183.75
2022-08-26T21:11:33.110Z,96185.72
2022-08-26T21:14:06.670Z,96186.09
2022-08-26T21:16:39.609Z,96192.66
2022-08-26T21:19:11.902Z,96196.13
2022-08-26T21:21:40.934Z,96201.97
2022-08-26T21:24:09.337Z,96188.50
2022-08-26T21:26:37.018Z,96189.75
2022-08-26T21:29:08.196Z,96177.13
2022-08-26T21:31:39.143Z,96189.53
2022-08-26T21:34:08.468Z,96197.75
2022-08-26T21:36:35.940Z,96194.81
2022-08-26T21:39:07.002Z,96183.63
2022-08-26T21:41:38.321Z,96186.16
2022-08-26T21:44:05.425Z,96177.38
2022-08-26T21:46:34.714Z,96174.47
2022-08-26T21:49:03.723Z,96186.63
2022-08-26T21:51:41.174Z,96182.34
2022-08-26T21:54:11.061Z,96177.72
2022-08-26T21:56:42.497Z,96185.03
2022-08-26T21:59:10.550Z,96182.66
2022-08-26T22:01:38.257Z,96178.56
2022-08-26T22:04:08.159Z,96183.00
2022-08-26T22:06:41.894Z,96186.41
2022-08-26T22:09:10.816Z,96183.78
2022-08-26T22:11:37.939Z,96180.97
2022-08-26T22:14:07.234Z,96186.06
2022-08-26T22:16:34.712Z,96197.16
2022-08-26T22:19:02.316Z,96200.25
2022-08-26T22:21:29.521Z,96207.00
2022-08-26T22:23:58.431Z,96204.66
2022-08-26T22:26:29.368Z,96199.38
2022-08-26T22:28:59.393Z,96198.81
2022-08-26T22:31:37.283Z,96199.53
2022-08-26T22:34:11.840Z,96210.81
2022-08-26T22:36:44.284Z,96207.69
2022-08-26T22:39:17.398Z,96209.50
2022-08-26T22:41:46.240Z,96207.81
2022-08-26T22:44:13.480Z,96217.78
2022-08-26T22:46:42.267Z,96216.81
2022-08-26T22:49:11.570Z,96227.84
2022-08-26T22:51:39.457Z,96226.50
2022-08-26T22:54:06.683Z,96221.34
2022-08-26T22:56:35.011Z,96223.91
2022-08-26T22:59:02.162Z,96234.47
2022-08-26T23:01:31.430Z,96221.03
2022-08-26T23:03:58.531Z,96215.94
2022-08-26T23:06:25.724Z,96229.84
2022-08-26T23:08:53.320Z,96234.53
2022-08-26T23:11:23.721Z,96233.41
2022-08-26T23:13:52.102Z,96233.94
2022-08-26T23:16:19.593Z,96231.00
2022-08-26T23:18:47.329Z,96235.00
2022-08-26T23:21:15.425Z,96226.53
2022-08-26T23:23:45.672Z,96223.84
2022-08-26T23:26:17.393Z,96215.13
2022-08-26T23:28:45.050Z,96215.25
2022-08-26T23:31:12.650Z,96208.81
2022-08-26T23:33:58.634Z,96216.13
2022-08-26T23:36:25.841Z,96209.75
2022-08-26T23:38:53.581Z,96203.06
2022-08-26T23:41:22.752Z,96198.66
2022-08-26T23:43:51.728Z,96206.06
2022-08-26T23:46:19.993Z,96199.31
2022-08-26T23:48:47.843Z,96187.94
2022-08-26T23:51:33.833Z,96187.34
2022-08-26T23:54:01.373Z,96189.22
2022-08-26T23:56:29.352Z,96196.31
2022-08-26T23:58:57.046Z,96186.22
